sensor_id;sensor_type;location;lat;lon;timestamp;temperature;humidity
27667;DHT22;15074;50.940;5.282;2023-01-16T00:15:12;4.60;99.90
27667;DHT22;15074;50.940;5.282;2023-01-16T00:28:10;4.70;99.90
27667;DHT22;15074;50.940;5.282;2023-01-16T00:30:36;4.70;99.90
27667;DHT22;15074;50.940;5.282;2023-01-16T01:25:53;4.30;99.90
27667;DHT22;15074;50.940;5.282;2023-01-16T01:28:19;4.30;99.90
27667;DHT22;15074;50.940;5.282;2023-01-16T01:30:45;4.30;99.90
27667;DHT22;15074;50.940;5.282;2023-01-16T01:33:10;4.20;99.90
27667;DHT22;15074;50.940;5.282;2023-01-16T01:35:37;4.30;99.90
27667;DHT22;15074;50.940;5.282;2023-01-16T01:38:03;4.40;99.90
27667;DHT22;15074;50.940;5.282;2023-01-16T01:40:29;4.50;99.90
27667;DHT22;15074;50.940;5.282;2023-01-16T01:42:54;4.40;99.90
27667;DHT22;15074;50.940;5.282;2023-01-16T01:48:11;4.40;99.90
27667;DHT22;15074;50.940;5.282;2023-01-16T01:50:48;4.50;99.90
27667;DHT22;15074;50.940;5.282;2023-01-16T01:53:26;4.50;99.90
27667;DHT22;15074;50.940;5.282;2023-01-16T01:55:53;4.50;99.90
27667;DHT22;15074;50.940;5.282;2023-01-16T01:58:34;4.50;99.90
27667;DHT22;15074;50.940;5.282;2023-01-16T02:01:03;4.60;99.90
27667;DHT22;15074;50.940;5.282;2023-01-16T02:03:42;4.60;99.90
27667;DHT22;15074;50.940;5.282;2023-01-16T02:06:17;4.70;99.90
27667;DHT22;15074;50.940;5.282;2023-01-16T02:08:46;4.80;99.90
27667;DHT22;15074;50.940;5.282;2023-01-16T02:18:38;5.00;99.90
27667;DHT22;15074;50.940;5.282;2023-01-16T02:36:05;5.00;99.90
27667;DHT22;15074;50.940;5.282;2023-01-16T02:51:12;5.20;99.90
27667;DHT22;15074;50.940;5.282;2023-01-16T03:10:45;5.30;99.90
27667;DHT22;15074;50.940;5.282;2023-01-16T03:16:52;5.40;99.90
27667;DHT22;15074;50.940;5.282;2023-01-16T03:28:40;5.50;99.90
27667;DHT22;15074;50.940;5.282;2023-01-16T03:31:12;5.50;99.90
27667;DHT22;15074;50.940;5.282;2023-01-16T03:38:40;5.30;99.90
27667;DHT22;15074;50.940;5.282;2023-01-16T03:41:09;5.30;99.90
27667;DHT22;15074;50.940;5.282;2023-01-16T03:43:37;5.30;99.90
27667;DHT22;15074;50.940;5.282;2023-01-16T03:49:40;5.30;99.90
27667;DHT22;15074;50.940;5.282;2023-01-16T04:24:27;5.60;99.90
27667;DHT22;15074;50.940;5.282;2023-01-16T04:26:53;5.60;99.90
27667;DHT22;15074;50.940;5.282;2023-01-16T04:29:19;5.60;99.90
27667;DHT22;15074;50.940;5.282;2023-01-16T04:32:05;5.60;99.90
27667;DHT22;15074;50.940;5.282;2023-01-16T04:34:31;5.70;99.90
27667;DHT22;15074;50.940;5.282;2023-01-16T04:36:57;5.80;99.90
27667;DHT22;15074;50.940;5.282;2023-01-16T04:39:22;5.80;99.90
27667;DHT22;15074;50.940;5.282;2023-01-16T04:41:48;5.80;99.90
27667;DHT22;15074;50.940;5.282;2023-01-16T04:48:18;6.00;99.90
27667;DHT22;15074;50.940;5.282;2023-01-16T04:51:05;5.90;99.90
27667;DHT22;15074;50.940;5.282;2023-01-16T04:53:34;6.00;99.90
27667;DHT22;15074;50.940;5.282;2023-01-16T04:56:01;5.90;99.90
27667;DHT22;15074;50.940;5.282;2023-01-16T04:58:27;5.90;99.90
27667;DHT22;15074;50.940;5.282;2023-01-16T05:00:53;5.80;99.90
27667;DHT22;15074;50.940;5.282;2023-01-16T05:03:19;5.80;99.90
27667;DHT22;15074;50.940;5.282;2023-01-16T05:05:45;5.80;99.90
27667;DHT22;15074;50.940;5.282;2023-01-16T05:08:10;5.80;99.90
27667;DHT22;15074;50.940;5.282;2023-01-16T05:10:42;5.80;99.90
27667;DHT22;15074;50.940;5.282;2023-01-16T05:19:21;5.90;99.90
27667;DHT22;15074;50.940;5.282;2023-01-16T05:21:47;6.00;99.90
27667;DHT22;15074;50.940;5.282;2023-01-16T05:24:12;6.00;99.90
27667;DHT22;15074;50.940;5.282;2023-01-16T05:26:38;6.00;99.90
27667;DHT22;15074;50.940;5.282;2023-01-16T05:29:03;6.10;99.90
27667;DHT22;15074;50.940;5.282;2023-01-16T05:35:14;6.10;99.90
27667;DHT22;15074;50.940;5.282;2023-01-16T05:38:00;6.20;99.90
27667;DHT22;15074;50.940;5.282;2023-01-16T05:40:26;6.10;99.90
27667;DHT22;15074;50.940;5.282;2023-01-16T05:42:52;6.20;99.90
27667;DHT22;15074;50.940;5.282;2023-01-16T05:49:21;6.30;99.90
27667;DHT22;15074;50.940;5.282;2023-01-16T05:54:53;6.20;99.90
27667;DHT22;15074;50.940;5.282;2023-01-16T05:57:20;6.10;99.90
27667;DHT22;15074;50.940;5.282;2023-01-16T05:59:49;6.00;99.90
27667;DHT22;15074;50.940;5.282;2023-01-16T06:23:56;5.60;99.90
27667;DHT22;15074;50.940;5.282;2023-01-16T06:26:21;5.60;99.90
27667;DHT22;15074;50.940;5.282;2023-01-16T06:28:47;5.60;99.90
27667;DHT22;15074;50.940;5.282;2023-01-16T06:31:13;5.60;99.90
27667;DHT22;15074;50.940;5.282;2023-01-16T06:33:38;5.60;99.90
27667;DHT22;15074;50.940;5.282;2023-01-16T08:33:45;5.10;99.90
27667;DHT22;15074;50.940;5.282;2023-01-16T08:36:13;5.10;99.90
27667;DHT22;15074;50.940;5.282;2023-01-16T08:38:40;5.10;99.90
27667;DHT22;15074;50.940;5.282;2023-01-16T08:41:06;5.10;99.90
27667;DHT22;15074;50.940;5.282;2023-01-16T08:43:54;5.10;99.90
27667;DHT22;15074;50.940;5.282;2023-01-16T08:46:39;5.10;99.90
27667;DHT22;15074;50.940;5.282;2023-01-16T08:49:24;5.10;99.90
27667;DHT22;15074;50.940;5.282;2023-01-16T08:52:09;5.10;99.90
27667;DHT22;15074;50.940;5.282;2023-01-16T08:54:35;5.10;99.90
27667;DHT22;15074;50.940;5.282;2023-01-16T08:57:01;5.10;99.90
27667;DHT22;15074;50.940;5.282;2023-01-16T08:59:26;5.10;99.90
27667;DHT22;15074;50.940;5.282;2023-01-16T09:01:59;5.10;99.90
27667;DHT22;15074;50.940;5.282;2023-01-16T09:04:25;5.10;99.90
27667;DHT22;15074;50.940;5.282;2023-01-16T09:06:51;5.10;99.90
27667;DHT22;15074;50.940;5.282;2023-01-16T09:09:19;5.10;99.90
27667;DHT22;15074;50.940;5.282;2023-01-16T09:11:45;5.10;99.90
27667;DHT22;15074;50.940;5.282;2023-01-16T09:14:29;5.10;99.90
27667;DHT22;15074;50.940;5.282;2023-01-16T09:16:54;5.10;99.90
27667;DHT22;15074;50.940;5.282;2023-01-16T09:19:20;5.10;99.90
27667;DHT22;15074;50.940;5.282;2023-01-16T09:21:46;5.30;99.90
27667;DHT22;15074;50.940;5.282;2023-01-16T09:24:12;5.30;99.90
27667;DHT22;15074;50.940;5.282;2023-01-16T09:26:37;5.40;99.90
27667;DHT22;15074;50.940;5.282;2023-01-16T09:29:03;5.80;99.90
27667;DHT22;15074;50.940;5.282;2023-01-16T09:31:29;5.70;99.90
27667;DHT22;15074;50.940;5.282;2023-01-16T09:33:54;5.50;99.90
27667;DHT22;15074;50.940;5.282;2023-01-16T09:36:21;5.40;99.90
27667;DHT22;15074;50.940;5.282;2023-01-16T09:38:46;5.40;99.90
27667;DHT22;15074;50.940;5.282;2023-01-16T09:41:17;5.50;99.90
27667;DHT22;15074;50.940;5.282;2023-01-16T09:44:14;5.70;99.90
27667;DHT22;15074;50.940;5.282;2023-01-16T09:46:49;6.10;99.90
27667;DHT22;15074;50.940;5.282;2023-01-16T09:49:30;6.50;99.90
27667;DHT22;15074;50.940;5.282;2023-01-16T09:52:09;6.80;99.90
27667;DHT22;15074;50.940;5.282;2023-01-16T09:55:01;7.40;99.90
27667;DHT22;15074;50.940;5.282;2023-01-16T09:57:47;8.30;99.90
27667;DHT22;15074;50.940;5.282;2023-01-16T10:00:33;8.70;99.90
27667;DHT22;15074;50.940;5.282;2023-01-16T10:03:00;8.60;99.90
27667;DHT22;15074;50.940;5.282;2023-01-16T10:05:49;8.20;99.90
27667;DHT22;15074;50.940;5.282;2023-01-16T10:11:10;7.30;99.90
27667;DHT22;15074;50.940;5.282;2023-01-16T10:16:54;7.30;99.90
27667;DHT22;15074;50.940;5.282;2023-01-16T10:20:04;7.40;99.90
27667;DHT22;15074;50.940;5.282;2023-01-16T10:22:55;7.10;99.90
27667;DHT22;15074;50.940;5.282;2023-01-16T10:25:39;7.00;99.90
27667;DHT22;15074;50.940;5.282;2023-01-16T10:28:31;7.10;99.90
27667;DHT22;15074;50.940;5.282;2023-01-16T10:31:16;7.20;99.90
27667;DHT22;15074;50.940;5.282;2023-01-16T10:33:57;7.50;99.90
27667;DHT22;15074;50.940;5.282;2023-01-16T10:36:29;7.50;99.90
27667;DHT22;15074;50.940;5.282;2023-01-16T10:38:57;7.20;99.90
27667;DHT22;15074;50.940;5.282;2023-01-16T10:47:53;7.00;99.90
27667;DHT22;15074;50.940;5.282;2023-01-16T10:50:37;7.10;99.90
27667;DHT22;15074;50.940;5.282;2023-01-16T10:53:08;7.00;99.90
27667;DHT22;15074;50.940;5.282;2023-01-16T10:55:36;7.00;99.90
27667;DHT22;15074;50.940;5.282;2023-01-16T10:58:28;6.90;99.90
27667;DHT22;15074;50.940;5.282;2023-01-16T11:04:06;6.80;99.90
27667;DHT22;15074;50.940;5.282;2023-01-16T11:10:17;6.70;99.90
27667;DHT22;15074;50.940;5.282;2023-01-16T11:22:58;6.80;99.90
27667;DHT22;15074;50.940;5.282;2023-01-16T11:32:14;6.80;99.90
27667;DHT22;15074;50.940;5.282;2023-01-16T11:34:45;6.90;99.90
27667;DHT22;15074;50.940;5.282;2023-01-16T11:37:36;6.80;99.90
27667;DHT22;15074;50.940;5.282;2023-01-16T11:40:03;6.90;99.90
27667;DHT22;15074;50.940;5.282;2023-01-16T11:42:30;6.90;99.90
27667;DHT22;15074;50.940;5.282;2023-01-16T11:48:42;7.10;99.90
27667;DHT22;15074;50.940;5.282;2023-01-16T11:51:16;7.80;99.90
27667;DHT22;15074;50.940;5.282;2023-01-16T11:53:46;7.80;99.90
27667;DHT22;15074;50.940;5.282;2023-01-16T12:02:12;7.30;99.90
27667;DHT22;15074;50.940;5.282;2023-01-16T12:13:08;7.50;99.90
27667;DHT22;15074;50.940;5.282;2023-01-16T12:44:02;6.80;99.90
27667;DHT22;15074;50.940;5.282;2023-01-16T12:55:25;6.50;99.90
27667;DHT22;15074;50.940;5.282;2023-01-16T13:01:12;6.60;99.90
27667;DHT22;15074;50.940;5.282;2023-01-16T13:08:58;6.70;99.90
27667;DHT22;15074;50.940;5.282;2023-01-16T13:11:34;6.70;99.90
27667;DHT22;15074;50.940;5.282;2023-01-16T13:14:20;6.70;99.90
27667;DHT22;15074;50.940;5.282;2023-01-16T13:19:21;6.80;99.90
27667;DHT22;15074;50.940;5.282;2023-01-16T13:21:58;6.90;99.90
27667;DHT22;15074;50.940;5.282;2023-01-16T13:24:39;7.10;99.90
27667;DHT22;15074;50.940;5.282;2023-01-16T13:27:14;7.10;99.90
27667;DHT22;15074;50.940;5.282;2023-01-16T13:29:50;7.10;99.90
27667;DHT22;15074;50.940;5.282;2023-01-16T13:32:38;7.00;99.90
27667;DHT22;15074;50.940;5.282;2023-01-16T13:43:39;7.00;99.90
27667;DHT22;15074;50.940;5.282;2023-01-16T13:46:24;7.00;99.90
27667;DHT22;15074;50.940;5.282;2023-01-16T13:48:53;7.00;99.90
27667;DHT22;15074;50.940;5.282;2023-01-16T13:51:21;7.20;99.90
27667;DHT22;15074;50.940;5.282;2023-01-16T13:54:00;7.30;99.90
27667;DHT22;15074;50.940;5.282;2023-01-16T13:56:30;7.20;99.90
27667;DHT22;15074;50.940;5.282;2023-01-16T13:59:05;7.20;99.90
27667;DHT22;15074;50.940;5.282;2023-01-16T14:01:55;7.40;99.90
27667;DHT22;15074;50.940;5.282;2023-01-16T14:06:57;7.30;99.90
27667;DHT22;15074;50.940;5.282;2023-01-16T14:13:11;7.20;99.90
27667;DHT22;15074;50.940;5.282;2023-01-16T14:15:55;7.10;99.90
27667;DHT22;15074;50.940;5.282;2023-01-16T14:18:58;7.00;99.90
27667;DHT22;15074;50.940;5.282;2023-01-16T14:21:39;6.90;99.90
27667;DHT22;15074;50.940;5.282;2023-01-16T14:24:17;6.90;99.90
27667;DHT22;15074;50.940;5.282;2023-01-16T14:26:56;7.00;99.90
27667;DHT22;15074;50.940;5.282;2023-01-16T14:29:32;6.80;99.90
27667;DHT22;15074;50.940;5.282;2023-01-16T14:37:36;6.60;99.90
27667;DHT22;15074;50.940;5.282;2023-01-16T14:42:55;6.40;99.90
27667;DHT22;15074;50.940;5.282;2023-01-16T14:45:42;6.30;99.90
27667;DHT22;15074;50.940;5.282;2023-01-16T14:48:46;6.20;99.90
27667;DHT22;15074;50.940;5.282;2023-01-16T14:51:33;6.10;99.90
27667;DHT22;15074;50.940;5.282;2023-01-16T14:54:28;6.00;99.90
27667;DHT22;15074;50.940;5.282;2023-01-16T14:57:24;6.00;99.90
27667;DHT22;15074;50.940;5.282;2023-01-16T15:03:14;6.00;99.90
27667;DHT22;15074;50.940;5.282;2023-01-16T15:05:46;6.10;99.90
27667;DHT22;15074;50.940;5.282;2023-01-16T15:08:29;6.20;99.90
27667;DHT22;15074;50.940;5.282;2023-01-16T15:11:00;6.20;99.90
27667;DHT22;15074;50.940;5.282;2023-01-16T15:13:46;6.30;99.90
27667;DHT22;15074;50.940;5.282;2023-01-16T15:16:30;6.30;99.90
27667;DHT22;15074;50.940;5.282;2023-01-16T15:19:20;6.30;99.90
27667;DHT22;15074;50.940;5.282;2023-01-16T15:22:15;6.30;99.90
27667;DHT22;15074;50.940;5.282;2023-01-16T15:24:50;6.40;99.90
27667;DHT22;15074;50.940;5.282;2023-01-16T15:27:28;6.30;99.90
27667;DHT22;15074;50.940;5.282;2023-01-16T15:30:04;6.10;99.90
27667;DHT22;15074;50.940;5.282;2023-01-16T15:32:55;6.20;99.90
27667;DHT22;15074;50.940;5.282;2023-01-16T15:35:21;6.30;99.90
27667;DHT22;15074;50.940;5.282;2023-01-16T15:37:52;6.30;99.90
27667;DHT22;15074;50.940;5.282;2023-01-16T15:40:26;6.30;99.90
27667;DHT22;15074;50.940;5.282;2023-01-16T15:42:53;6.20;99.90
27667;DHT22;15074;50.940;5.282;2023-01-16T15:45:52;6.20;99.90
27667;DHT22;15074;50.940;5.282;2023-01-16T15:48:54;6.20;99.90
27667;DHT22;15074;50.940;5.282;2023-01-16T15:51:22;6.20;99.90
27667;DHT22;15074;50.940;5.282;2023-01-16T15:53:49;6.20;99.90
27667;DHT22;15074;50.940;5.282;2023-01-16T15:58:52;6.30;99.90
27667;DHT22;15074;50.940;5.282;2023-01-16T16:01:30;6.30;99.90
27667;DHT22;15074;50.940;5.282;2023-01-16T16:03:57;6.30;99.90
27667;DHT22;15074;50.940;5.282;2023-01-16T16:06:24;6.30;99.90
27667;DHT22;15074;50.940;5.282;2023-01-16T16:08:53;6.30;99.90
27667;DHT22;15074;50.940;5.282;2023-01-16T16:11:24;6.20;99.90
27667;DHT22;15074;50.940;5.282;2023-01-16T16:17:27;6.10;99.90
27667;DHT22;15074;50.940;5.282;2023-01-16T16:20:33;6.00;99.90
27667;DHT22;15074;50.940;5.282;2023-01-16T16:25:36;5.90;99.90
27667;DHT22;15074;50.940;5.282;2023-01-16T16:28:19;5.90;99.90
27667;DHT22;15074;50.940;5.282;2023-01-16T16:30:47;6.00;99.90
27667;DHT22;15074;50.940;5.282;2023-01-16T16:33:19;6.00;99.90
27667;DHT22;15074;50.940;5.282;2023-01-16T16:35:54;6.00;99.90
27667;DHT22;15074;50.940;5.282;2023-01-16T16:38:29;6.00;99.90
27667;DHT22;15074;50.940;5.282;2023-01-16T16:43:56;6.00;99.90
27667;DHT22;15074;50.940;5.282;2023-01-16T16:51:35;6.00;99.90
27667;DHT22;15074;50.940;5.282;2023-01-16T16:54:08;6.00;99.90
27667;DHT22;15074;50.940;5.282;2023-01-16T16:56:37;5.90;99.90
27667;DHT22;15074;50.940;5.282;2023-01-16T16:59:03;5.80;99.90
27667;DHT22;15074;50.940;5.282;2023-01-16T17:01:30;5.80;99.90
27667;DHT22;15074;50.940;5.282;2023-01-16T17:03:57;5.70;99.90
27667;DHT22;15074;50.940;5.282;2023-01-16T17:06:31;5.70;99.90
27667;DHT22;15074;50.940;5.282;2023-01-16T17:08:57;5.60;99.90
27667;DHT22;15074;50.940;5.282;2023-01-16T17:11:24;5.50;99.90
27667;DHT22;15074;50.940;5.282;2023-01-16T17:13:50;5.40;99.90
27667;DHT22;15074;50.940;5.282;2023-01-16T17:16:22;5.30;99.90
27667;DHT22;15074;50.940;5.282;2023-01-16T17:18:53;5.20;99.90
27667;DHT22;15074;50.940;5.282;2023-01-16T17:21:22;5.20;99.90
27667;DHT22;15074;50.940;5.282;2023-01-16T17:23:48;5.10;99.90
27667;DHT22;15074;50.940;5.282;2023-01-16T17:26:14;5.20;99.90
27667;DHT22;15074;50.940;5.282;2023-01-16T17:28:41;5.20;99.90
27667;DHT22;15074;50.940;5.282;2023-01-16T17:31:18;5.10;99.90
27667;DHT22;15074;50.940;5.282;2023-01-16T17:33:46;4.90;99.90
27667;DHT22;15074;50.940;5.282;2023-01-16T17:36:24;4.80;99.90
27667;DHT22;15074;50.940;5.282;2023-01-16T18:15:05;4.40;99.90
27667;DHT22;15074;50.940;5.282;2023-01-16T18:17:50;4.40;99.90
27667;DHT22;15074;50.940;5.282;2023-01-16T18:20:16;4.50;99.90
27667;DHT22;15074;50.940;5.282;2023-01-16T18:22:42;4.50;99.90
27667;DHT22;15074;50.940;5.282;2023-01-16T18:25:26;4.50;99.90
27667;DHT22;15074;50.940;5.282;2023-01-16T18:27:52;4.60;99.90
27667;DHT22;15074;50.940;5.282;2023-01-16T18:30:20;4.60;99.90
27667;DHT22;15074;50.940;5.282;2023-01-16T18:32:46;4.70;99.90
27667;DHT22;15074;50.940;5.282;2023-01-16T18:35:13;4.70;99.90
27667;DHT22;15074;50.940;5.282;2023-01-16T18:37:42;4.60;99.90
27667;DHT22;15074;50.940;5.282;2023-01-16T18:40:31;4.60;99.90
27667;DHT22;15074;50.940;5.282;2023-01-16T18:58:47;4.70;99.90
27667;DHT22;15074;50.940;5.282;2023-01-16T19:08:05;4.70;99.90
27667;DHT22;15074;50.940;5.282;2023-01-16T19:17:26;4.80;99.90
27667;DHT22;15074;50.940;5.282;2023-01-16T19:19:52;4.80;99.90
